sensor_id;sensor_type;location;lat;lon;timestamp;P1;durP1;ratioP1;P2;durP2;ratioP2
33760;SDS011;20084;47.912;19.044;2023-05-25T00:13:39;4.85;;;2.65;;
33760;SDS011;20084;47.912;19.044;2023-05-25T00:16:05;3.03;;;2.72;;
33760;SDS011;20084;47.912;19.044;2023-05-25T00:18:31;3.15;;;2.95;;
33760;SDS011;20084;47.912;19.044;2023-05-25T00:20:57;4.03;;;3.60;;
33760;SDS011;20084;47.912;19.044;2023-05-25T00:23:29;4.35;;;3.08;;
33760;SDS011;20084;47.912;19.044;2023-05-25T00:25:55;3.22;;;3.03;;
33760;SDS011;20084;47.912;19.044;2023-05-25T00:28:21;3.25;;;3.00;;
33760;SDS011;20084;47.912;19.044;2023-05-25T00:30:47;3.88;;;3.00;;
33760;SDS011;20084;47.912;19.044;2023-05-25T00:33:13;4.03;;;3.10;;
33760;SDS011;20084;47.912;19.044;2023-05-25T00:35:40;3.42;;;3.05;;
33760;SDS011;20084;47.912;19.044;2023-05-25T00:38:16;4.75;;;2.75;;
33760;SDS011;20084;47.912;19.044;2023-05-25T00:40:42;3.28;;;3.00;;
33760;SDS011;20084;47.912;19.044;2023-05-25T00:43:09;7.43;;;3.60;;
33760;SDS011;20084;47.912;19.044;2023-05-25T00:45:35;4.13;;;3.63;;
33760;SDS011;20084;47.912;19.044;2023-05-25T00:48:02;4.18;;;3.17;;
33760;SDS011;20084;47.912;19.044;2023-05-25T00:50:35;3.92;;;2.97;;
33760;SDS011;20084;47.912;19.044;2023-05-25T00:53:03;4.95;;;3.05;;
33760;SDS011;20084;47.912;19.044;2023-05-25T00:55:36;4.13;;;3.38;;
33760;SDS011;20084;47.912;19.044;2023-05-25T00:58:05;3.97;;;3.60;;
33760;SDS011;20084;47.912;19.044;2023-05-25T01:00:32;5.30;;;3.47;;
33760;SDS011;20084;47.912;19.044;2023-05-25T01:03:03;3.90;;;3.05;;
33760;SDS011;20084;47.912;19.044;2023-05-25T01:05:35;6.05;;;3.40;;
33760;SDS011;20084;47.912;19.044;2023-05-25T01:08:02;3.88;;;3.28;;
33760;SDS011;20084;47.912;19.044;2023-05-25T01:10:31;4.05;;;3.60;;
33760;SDS011;20084;47.912;19.044;2023-05-25T01:13:00;5.50;;;4.22;;
33760;SDS011;20084;47.912;19.044;2023-05-25T01:15:27;4.13;;;3.78;;
33760;SDS011;20084;47.912;19.044;2023-05-25T01:17:54;5.05;;;3.55;;
33760;SDS011;20084;47.912;19.044;2023-05-25T01:20:24;4.63;;;3.50;;
33760;SDS011;20084;47.912;19.044;2023-05-25T01:23:10;3.80;;;3.47;;
33760;SDS011;20084;47.912;19.044;2023-05-25T01:25:42;5.68;;;3.60;;
33760;SDS011;20084;47.912;19.044;2023-05-25T01:28:17;6.57;;;3.25;;
33760;SDS011;20084;47.912;19.044;2023-05-25T01:31:05;5.65;;;3.70;;
33760;SDS011;20084;47.912;19.044;2023-05-25T01:33:32;3.55;;;3.25;;
33760;SDS011;20084;47.912;19.044;2023-05-25T01:35:59;4.72;;;3.38;;
33760;SDS011;20084;47.912;19.044;2023-05-25T01:38:25;4.03;;;3.63;;
33760;SDS011;20084;47.912;19.044;2023-05-25T01:40:51;5.90;;;3.78;;
33760;SDS011;20084;47.912;19.044;2023-05-25T01:43:17;4.00;;;3.03;;
33760;SDS011;20084;47.912;19.044;2023-05-25T01:45:42;3.20;;;2.90;;
33760;SDS011;20084;47.912;19.044;2023-05-25T01:51:18;4.18;;;3.50;;
33760;SDS011;20084;47.912;19.044;2023-05-25T01:54:11;3.22;;;2.47;;
33760;SDS011;20084;47.912;19.044;2023-05-25T01:56:43;3.58;;;2.40;;
33760;SDS011;20084;47.912;19.044;2023-05-25T01:59:10;4.10;;;2.88;;
33760;SDS011;20084;47.912;19.044;2023-05-25T02:01:39;3.20;;;2.90;;
33760;SDS011;20084;47.912;19.044;2023-05-25T02:04:06;8.50;;;3.10;;
33760;SDS011;20084;47.912;19.044;2023-05-25T02:06:34;3.42;;;3.00;;
33760;SDS011;20084;47.912;19.044;2023-05-25T02:09:01;3.25;;;2.90;;
33760;SDS011;20084;47.912;19.044;2023-05-25T02:11:26;3.30;;;2.65;;
33760;SDS011;20084;47.912;19.044;2023-05-25T02:13:52;1.92;;;1.75;;
33760;SDS011;20084;47.912;19.044;2023-05-25T02:16:19;1.77;;;1.67;;
33760;SDS011;20084;47.912;19.044;2023-05-25T02:18:45;1.48;;;1.38;;
33760;SDS011;20084;47.912;19.044;2023-05-25T02:21:11;1.95;;;1.85;;
33760;SDS011;20084;47.912;19.044;2023-05-25T02:23:37;2.22;;;1.98;;
33760;SDS011;20084;47.912;19.044;2023-05-25T02:26:02;2.45;;;2.25;;
33760;SDS011;20084;47.912;19.044;2023-05-25T02:28:28;3.38;;;2.42;;
33760;SDS011;20084;47.912;19.044;2023-05-25T02:30:53;2.60;;;2.40;;
33760;SDS011;20084;47.912;19.044;2023-05-25T02:33:19;2.80;;;2.60;;
33760;SDS011;20084;47.912;19.044;2023-05-25T02:35:45;1.70;;;1.60;;
33760;SDS011;20084;47.912;19.044;2023-05-25T02:38:11;2.85;;;2.08;;
33760;SDS011;20084;47.912;19.044;2023-05-25T02:40:36;1.83;;;1.50;;
33760;SDS011;20084;47.912;19.044;2023-05-25T02:43:02;2.30;;;1.90;;
33760;SDS011;20084;47.912;19.044;2023-05-25T02:45:28;2.20;;;1.60;;
33760;SDS011;20084;47.912;19.044;2023-05-25T02:47:53;2.00;;;1.80;;
33760;SDS011;20084;47.912;19.044;2023-05-25T02:50:19;3.75;;;1.95;;
33760;SDS011;20084;47.912;19.044;2023-05-25T02:52:45;2.35;;;2.15;;
33760;SDS011;20084;47.912;19.044;2023-05-25T02:55:11;2.30;;;2.20;;
33760;SDS011;20084;47.912;19.044;2023-05-25T02:57:42;3.20;;;1.83;;
33760;SDS011;20084;47.912;19.044;2023-05-25T03:00:08;2.10;;;2.00;;
33760;SDS011;20084;47.912;19.044;2023-05-25T03:02:37;2.85;;;1.90;;
33760;SDS011;20084;47.912;19.044;2023-05-25T03:05:03;2.20;;;2.00;;
33760;SDS011;20084;47.912;19.044;2023-05-25T03:07:29;2.03;;;1.92;;
33760;SDS011;20084;47.912;19.044;2023-05-25T03:09:55;5.13;;;1.90;;
33760;SDS011;20084;47.912;19.044;2023-05-25T03:12:20;3.38;;;1.98;;
33760;SDS011;20084;47.912;19.044;2023-05-25T03:14:46;2.15;;;2.00;;
33760;SDS011;20084;47.912;19.044;2023-05-25T03:17:11;3.10;;;2.45;;
33760;SDS011;20084;47.912;19.044;2023-05-25T03:19:37;2.47;;;2.28;;
33760;SDS011;20084;47.912;19.044;2023-05-25T03:22:03;3.60;;;3.17;;
33760;SDS011;20084;47.912;19.044;2023-05-25T03:24:29;4.53;;;3.35;;
33760;SDS011;20084;47.912;19.044;2023-05-25T03:26:54;2.72;;;2.53;;
33760;SDS011;20084;47.912;19.044;2023-05-25T03:29:20;2.20;;;1.88;;
33760;SDS011;20084;47.912;19.044;2023-05-25T03:31:46;2.28;;;2.15;;
33760;SDS011;20084;47.912;19.044;2023-05-25T03:34:11;3.75;;;2.40;;
33760;SDS011;20084;47.912;19.044;2023-05-25T03:36:37;2.22;;;2.03;;
33760;SDS011;20084;47.912;19.044;2023-05-25T03:39:04;3.40;;;3.10;;
33760;SDS011;20084;47.912;19.044;2023-05-25T03:41:30;3.65;;;3.08;;
33760;SDS011;20084;47.912;19.044;2023-05-25T03:43:55;3.35;;;3.05;;
33760;SDS011;20084;47.912;19.044;2023-05-25T03:46:21;3.10;;;2.80;;
33760;SDS011;20084;47.912;19.044;2023-05-25T03:48:47;3.50;;;3.20;;
33760;SDS011;20084;47.912;19.044;2023-05-25T03:51:12;3.80;;;3.50;;
33760;SDS011;20084;47.912;19.044;2023-05-25T03:53:38;4.95;;;4.47;;
33760;SDS011;20084;47.912;19.044;2023-05-25T03:56:04;9.88;;;5.82;;
33760;SDS011;20084;47.912;19.044;2023-05-25T03:58:30;11.27;;;4.25;;
33760;SDS011;20084;47.912;19.044;2023-05-25T04:00:55;6.55;;;4.38;;
33760;SDS011;20084;47.912;19.044;2023-05-25T04:03:21;4.93;;;3.38;;
33760;SDS011;20084;47.912;19.044;2023-05-25T04:05:47;3.47;;;3.17;;
33760;SDS011;20084;47.912;19.044;2023-05-25T04:08:13;4.68;;;3.60;;
33760;SDS011;20084;47.912;19.044;2023-05-25T04:10:42;4.97;;;3.92;;
33760;SDS011;20084;47.912;19.044;2023-05-25T04:13:11;6.90;;;4.38;;
33760;SDS011;20084;47.912;19.044;2023-05-25T04:15:37;6.10;;;5.50;;
33760;SDS011;20084;47.912;19.044;2023-05-25T04:18:02;8.18;;;5.68;;
33760;SDS011;20084;47.912;19.044;2023-05-25T04:20:28;5.30;;;4.78;;
33760;SDS011;20084;47.912;19.044;2023-05-25T04:22:54;6.72;;;4.47;;
33760;SDS011;20084;47.912;19.044;2023-05-25T04:25:21;5.60;;;4.80;;
33760;SDS011;20084;47.912;19.044;2023-05-25T04:27:47;4.85;;;4.20;;
33760;SDS011;20084;47.912;19.044;2023-05-25T04:30:14;6.45;;;5.00;;
33760;SDS011;20084;47.912;19.044;2023-05-25T04:32:40;5.38;;;4.43;;
33760;SDS011;20084;47.912;19.044;2023-05-25T04:35:06;5.13;;;4.72;;
33760;SDS011;20084;47.912;19.044;2023-05-25T04:37:32;5.28;;;4.75;;
33760;SDS011;20084;47.912;19.044;2023-05-25T04:40:00;6.88;;;4.50;;
33760;SDS011;20084;47.912;19.044;2023-05-25T04:42:30;7.00;;;4.97;;
33760;SDS011;20084;47.912;19.044;2023-05-25T04:44:56;5.45;;;4.55;;
33760;SDS011;20084;47.912;19.044;2023-05-25T04:47:23;6.20;;;5.50;;
33760;SDS011;20084;47.912;19.044;2023-05-25T04:49:48;6.03;;;5.53;;
33760;SDS011;20084;47.912;19.044;2023-05-25T04:52:14;6.65;;;5.80;;
33760;SDS011;20084;47.912;19.044;2023-05-25T04:54:40;7.80;;;7.07;;
33760;SDS011;20084;47.912;19.044;2023-05-25T04:57:05;6.88;;;6.28;;
33760;SDS011;20084;47.912;19.044;2023-05-25T04:59:31;6.55;;;5.95;;
33760;SDS011;20084;47.912;19.044;2023-05-25T05:01:57;7.47;;;6.78;;
33760;SDS011;20084;47.912;19.044;2023-05-25T05:04:22;6.80;;;6.10;;
33760;SDS011;20084;47.912;19.044;2023-05-25T05:06:48;7.18;;;6.47;;
33760;SDS011;20084;47.912;19.044;2023-05-25T05:09:14;7.50;;;6.70;;
33760;SDS011;20084;47.912;19.044;2023-05-25T05:11:40;6.85;;;6.25;;
33760;SDS011;20084;47.912;19.044;2023-05-25T05:14:05;6.63;;;6.03;;
33760;SDS011;20084;47.912;19.044;2023-05-25T05:16:31;6.53;;;5.93;;
33760;SDS011;20084;47.912;19.044;2023-05-25T05:18:59;7.70;;;7.00;;
33760;SDS011;20084;47.912;19.044;2023-05-25T05:21:26;9.35;;;6.47;;
33760;SDS011;20084;47.912;19.044;2023-05-25T05:23:51;7.15;;;6.38;;
33760;SDS011;20084;47.912;19.044;2023-05-25T05:26:17;8.00;;;6.80;;
33760;SDS011;20084;47.912;19.044;2023-05-25T05:28:43;7.88;;;6.95;;
33760;SDS011;20084;47.912;19.044;2023-05-25T05:31:09;7.38;;;6.60;;
33760;SDS011;20084;47.912;19.044;2023-05-25T05:33:36;7.07;;;6.25;;
33760;SDS011;20084;47.912;19.044;2023-05-25T05:36:02;7.00;;;6.32;;
33760;SDS011;20084;47.912;19.044;2023-05-25T05:38:28;8.48;;;6.45;;
33760;SDS011;20084;47.912;19.044;2023-05-25T05:40:54;7.10;;;6.40;;
33760;SDS011;20084;47.912;19.044;2023-05-25T05:43:19;6.90;;;6.30;;
33760;SDS011;20084;47.912;19.044;2023-05-25T05:45:45;8.35;;;6.63;;
33760;SDS011;20084;47.912;19.044;2023-05-25T05:48:11;7.30;;;5.78;;
33760;SDS011;20084;47.912;19.044;2023-05-25T05:50:37;6.97;;;6.28;;
33760;SDS011;20084;47.912;19.044;2023-05-25T05:53:03;6.80;;;6.07;;
33760;SDS011;20084;47.912;19.044;2023-05-25T05:55:30;6.95;;;6.13;;
33760;SDS011;20084;47.912;19.044;2023-05-25T05:57:55;6.85;;;6.15;;
33760;SDS011;20084;47.912;19.044;2023-05-25T06:00:21;7.15;;;6.55;;
33760;SDS011;20084;47.912;19.044;2023-05-25T06:02:47;8.07;;;6.78;;
33760;SDS011;20084;47.912;19.044;2023-05-25T06:05:13;8.18;;;6.05;;
33760;SDS011;20084;47.912;19.044;2023-05-25T06:07:38;7.53;;;5.85;;
33760;SDS011;20084;47.912;19.044;2023-05-25T06:10:05;5.70;;;5.10;;
33760;SDS011;20084;47.912;19.044;2023-05-25T06:12:31;6.15;;;5.55;;
33760;SDS011;20084;47.912;19.044;2023-05-25T06:14:56;6.65;;;5.75;;
33760;SDS011;20084;47.912;19.044;2023-05-25T06:17:22;7.45;;;6.68;;
33760;SDS011;20084;47.912;19.044;2023-05-25T06:19:48;6.40;;;5.75;;
33760;SDS011;20084;47.912;19.044;2023-05-25T06:22:14;6.50;;;5.90;;
33760;SDS011;20084;47.912;19.044;2023-05-25T06:24:40;7.45;;;6.47;;
33760;SDS011;20084;47.912;19.044;2023-05-25T06:27:06;6.07;;;5.55;;
33760;SDS011;20084;47.912;19.044;2023-05-25T06:29:32;6.30;;;5.80;;
33760;SDS011;20084;47.912;19.044;2023-05-25T06:31:57;7.53;;;5.60;;
33760;SDS011;20084;47.912;19.044;2023-05-25T06:34:23;6.85;;;6.03;;
33760;SDS011;20084;47.912;19.044;2023-05-25T06:36:49;7.05;;;5.68;;
33760;SDS011;20084;47.912;19.044;2023-05-25T06:39:17;8.43;;;5.93;;
33760;SDS011;20084;47.912;19.044;2023-05-25T06:41:44;5.90;;;5.40;;
33760;SDS011;20084;47.912;19.044;2023-05-25T06:44:09;6.15;;;5.55;;
33760;SDS011;20084;47.912;19.044;2023-05-25T06:46:35;5.15;;;4.75;;
33760;SDS011;20084;47.912;19.044;2023-05-25T06:49:01;6.65;;;5.10;;
33760;SDS011;20084;47.912;19.044;2023-05-25T06:51:27;5.93;;;5.00;;
33760;SDS011;20084;47.912;19.044;2023-05-25T06:53:56;5.60;;;4.85;;
33760;SDS011;20084;47.912;19.044;2023-05-25T06:56:21;8.52;;;5.25;;
33760;SDS011;20084;47.912;19.044;2023-05-25T06:58:47;5.93;;;5.32;;
33760;SDS011;20084;47.912;19.044;2023-05-25T07:01:14;5.43;;;4.78;;
33760;SDS011;20084;47.912;19.044;2023-05-25T07:03:40;6.35;;;5.20;;
33760;SDS011;20084;47.912;19.044;2023-05-25T07:06:06;5.75;;;5.15;;
33760;SDS011;20084;47.912;19.044;2023-05-25T07:08:32;5.80;;;5.30;;
33760;SDS011;20084;47.912;19.044;2023-05-25T07:10:58;5.13;;;4.32;;
33760;SDS011;20084;47.912;19.044;2023-05-25T07:13:23;6.85;;;5.25;;
33760;SDS011;20084;47.912;19.044;2023-05-25T07:15:49;6.95;;;4.90;;
33760;SDS011;20084;47.912;19.044;2023-05-25T07:18:16;7.15;;;5.25;;
33760;SDS011;20084;47.912;19.044;2023-05-25T07:20:42;5.55;;;4.40;;
33760;SDS011;20084;47.912;19.044;2023-05-25T07:23:08;5.75;;;5.25;;
33760;SDS011;20084;47.912;19.044;2023-05-25T07:25:38;4.97;;;4.38;;
33760;SDS011;20084;47.912;19.044;2023-05-25T07:28:04;5.78;;;4.22;;
33760;SDS011;20084;47.912;19.044;2023-05-25T07:30:30;7.18;;;4.45;;
33760;SDS011;20084;47.912;19.044;2023-05-25T07:32:56;5.20;;;4.70;;
33760;SDS011;20084;47.912;19.044;2023-05-25T07:35:24;5.35;;;4.45;;
33760;SDS011;20084;47.912;19.044;2023-05-25T07:38:01;5.97;;;5.15;;
33760;SDS011;20084;47.912;19.044;2023-05-25T07:40:28;4.78;;;4.38;;
33760;SDS011;20084;47.912;19.044;2023-05-25T07:42:54;7.40;;;4.75;;
33760;SDS011;20084;47.912;19.044;2023-05-25T07:45:20;5.07;;;4.47;;
33760;SDS011;20084;47.912;19.044;2023-05-25T07:47:46;5.55;;;4.78;;
33760;SDS011;20084;47.912;19.044;2023-05-25T07:50:12;5.00;;;4.60;;
33760;SDS011;20084;47.912;19.044;2023-05-25T07:52:38;5.57;;;4.90;;
33760;SDS011;20084;47.912;19.044;2023-05-25T07:55:05;4.95;;;4.30;;
33760;SDS011;20084;47.912;19.044;2023-05-25T07:57:31;4.82;;;4.35;;
33760;SDS011;20084;47.912;19.044;2023-05-25T07:59:57;4.70;;;4.30;;
33760;SDS011;20084;47.912;19.044;2023-05-25T08:02:23;4.65;;;4.25;;
33760;SDS011;20084;47.912;19.044;2023-05-25T08:04:48;5.10;;;4.57;;
33760;SDS011;20084;47.912;19.044;2023-05-25T08:07:14;4.55;;;4.22;;
33760;SDS011;20084;47.912;19.044;2023-05-25T08:09:40;5.00;;;3.95;;
33760;SDS011;20084;47.912;19.044;2023-05-25T08:12:05;4.45;;;4.00;;
33760;SDS011;20084;47.912;19.044;2023-05-25T08:14:31;5.70;;;3.70;;
33760;SDS011;20084;47.912;19.044;2023-05-25T08:16:57;5.10;;;3.85;;
33760;SDS011;20084;47.912;19.044;2023-05-25T08:19:22;4.28;;;3.60;;
33760;SDS011;20084;47.912;19.044;2023-05-25T08:21:48;3.83;;;3.40;;
33760;SDS011;20084;47.912;19.044;2023-05-25T08:24:14;4.45;;;4.05;;
33760;SDS011;20084;47.912;19.044;2023-05-25T08:26:39;4.85;;;3.55;;
33760;SDS011;20084;47.912;19.044;2023-05-25T08:29:05;3.72;;;3.42;;
33760;SDS011;20084;47.912;19.044;2023-05-25T08:31:31;6.40;;;3.35;;
33760;SDS011;20084;47.912;19.044;2023-05-25T08:33:57;4.13;;;3.72;;
33760;SDS011;20084;47.912;19.044;2023-05-25T08:36:23;4.00;;;3.60;;
33760;SDS011;20084;47.912;19.044;2023-05-25T08:38:50;3.78;;;3.47;;
33760;SDS011;20084;47.912;19.044;2023-05-25T08:41:16;4.43;;;4.03;;
33760;SDS011;20084;47.912;19.044;2023-05-25T08:43:43;5.45;;;4.20;;
33760;SDS011;20084;47.912;19.044;2023-05-25T08:46:09;5.93;;;5.43;;
33760;SDS011;20084;47.912;19.044;2023-05-25T08:48:35;7.80;;;5.38;;
33760;SDS011;20084;47.912;19.044;2023-05-25T08:51:06;5.88;;;5.28;;
33760;SDS011;20084;47.912;19.044;2023-05-25T08:53:37;6.63;;;4.35;;
33760;SDS011;20084;47.912;19.044;2023-05-25T08:56:14;5.25;;;4.75;;
33760;SDS011;20084;47.912;19.044;2023-05-25T08:58:52;4.75;;;4.20;;
33760;SDS011;20084;47.912;19.044;2023-05-25T09:01:27;4.57;;;4.10;;
33760;SDS011;20084;47.912;19.044;2023-05-25T09:03:55;4.88;;;3.85;;
33760;SDS011;20084;47.912;19.044;2023-05-25T09:06:23;3.80;;;3.05;;
33760;SDS011;20084;47.912;19.044;2023-05-25T09:08:51;4.28;;;3.17;;
33760;SDS011;20084;47.912;19.044;2023-05-25T09:11:18;4.00;;;3.50;;
33760;SDS011;20084;47.912;19.044;2023-05-25T09:13:45;4.47;;;3.25;;
33760;SDS011;20084;47.912;19.044;2023-05-25T09:16:11;3.95;;;3.55;;
33760;SDS011;20084;47.912;19.044;2023-05-25T09:18:36;4.35;;;3.95;;
33760;SDS011;20084;47.912;19.044;2023-05-25T09:21:04;4.20;;;3.80;;
33760;SDS011;20084;47.912;19.044;2023-05-25T09:23:30;3.58;;;3.28;;
33760;SDS011;20084;47.912;19.044;2023-05-25T09:25:56;5.03;;;3.47;;
33760;SDS011;20084;47.912;19.044;2023-05-25T09:28:22;3.92;;;3.47;;
33760;SDS011;20084;47.912;19.044;2023-05-25T09:30:47;9.27;;;3.90;;
33760;SDS011;20084;47.912;19.044;2023-05-25T09:33:14;5.40;;;3.85;;
33760;SDS011;20084;47.912;19.044;2023-05-25T09:35:43;4.05;;;3.35;;
33760;SDS011;20084;47.912;19.044;2023-05-25T09:38:13;4.93;;;3.67;;
33760;SDS011;20084;47.912;19.044;2023-05-25T09:40:40;4.60;;;3.53;;
33760;SDS011;20084;47.912;19.044;2023-05-25T09:43:06;4.95;;;3.58;;
33760;SDS011;20084;47.912;19.044;2023-05-25T09:45:32;5.22;;;3.30;;
33760;SDS011;20084;47.912;19.044;2023-05-25T09:47:57;3.50;;;3.30;;
33760;SDS011;20084;47.912;19.044;2023-05-25T09:50:27;5.97;;;3.40;;
33760;SDS011;20084;47.912;19.044;2023-05-25T09:52:55;3.63;;;3.33;;
33760;SDS011;20084;47.912;19.044;2023-05-25T09:55:27;4.13;;;3.10;;
33760;SDS011;20084;47.912;19.044;2023-05-25T09:57:53;3.35;;;3.05;;
33760;SDS011;20084;47.912;19.044;2023-05-25T10:00:20;3.80;;;3.50;;
33760;SDS011;20084;47.912;19.044;2023-05-25T10:02:50;3.92;;;3.42;;
33760;SDS011;20084;47.912;19.044;2023-05-25T10:05:16;3.65;;;3.00;;
33760;SDS011;20084;47.912;19.044;2023-05-25T10:07:45;4.40;;;3.50;;
33760;SDS011;20084;47.912;19.044;2023-05-25T10:10:14;4.35;;;3.10;;
33760;SDS011;20084;47.912;19.044;2023-05-25T10:12:40;4.75;;;3.55;;
33760;SDS011;20084;47.912;19.044;2023-05-25T10:15:08;3.53;;;3.28;;
33760;SDS011;20084;47.912;19.044;2023-05-25T10:17:35;3.40;;;3.17;;
33760;SDS011;20084;47.912;19.044;2023-05-25T10:20:17;4.00;;;3.15;;
33760;SDS011;20084;47.912;19.044;2023-05-25T10:22:56;3.92;;;3.47;;
33760;SDS011;20084;47.912;19.044;2023-05-25T10:25:43;3.58;;;3.25;;
33760;SDS011;20084;47.912;19.044;2023-05-25T10:28:16;3.55;;;3.25;;
33760;SDS011;20084;47.912;19.044;2023-05-25T10:30:46;3.97;;;3.53;;
33760;SDS011;20084;47.912;19.044;2023-05-25T10:33:13;3.63;;;3.33;;
33760;SDS011;20084;47.912;19.044;2023-05-25T10:35:39;5.22;;;3.28;;
33760;SDS011;20084;47.912;19.044;2023-05-25T10:38:07;5.78;;;3.08;;
33760;SDS011;20084;47.912;19.044;2023-05-25T10:40:34;5.45;;;3.60;;
33760;SDS011;20084;47.912;19.044;2023-05-25T10:43:02;3.60;;;3.30;;
33760;SDS011;20084;47.912;19.044;2023-05-25T10:45:29;3.40;;;3.10;;
33760;SDS011;20084;47.912;19.044;2023-05-25T10:47:54;4.72;;;3.03;;
33760;SDS011;20084;47.912;19.044;2023-05-25T10:50:21;3.30;;;2.97;;
33760;SDS011;20084;47.912;19.044;2023-05-25T10:52:56;3.03;;;2.80;;
33760;SDS011;20084;47.912;19.044;2023-05-25T10:55:24;3.55;;;3.10;;
33760;SDS011;20084;47.912;19.044;2023-05-25T10:58:07;4.20;;;3.03;;
33760;SDS011;20084;47.912;19.044;2023-05-25T11:00:34;3.67;;;3.00;;
33760;SDS011;20084;47.912;19.044;2023-05-25T11:03:00;5.80;;;2.88;;
33760;SDS011;20084;47.912;19.044;2023-05-25T11:07:57;3.08;;;2.70;;
33760;SDS011;20084;47.912;19.044;2023-05-25T11:13:21;3.75;;;2.80;;
33760;SDS011;20084;47.912;19.044;2023-05-25T11:18:57;4.60;;;3.00;;
33760;SDS011;20084;47.912;19.044;2023-05-25T11:24:01;2.70;;;2.53;;
33760;SDS011;20084;47.912;19.044;2023-05-25T11:26:34;2.70;;;2.50;;
33760;SDS011;20084;47.912;19.044;2023-05-25T11:29:03;4.72;;;2.70;;
33760;SDS011;20084;47.912;19.044;2023-05-25T11:31:37;2.58;;;2.38;;
33760;SDS011;20084;47.912;19.044;2023-05-25T11:34:03;2.47;;;2.28;;
33760;SDS011;20084;47.912;19.044;2023-05-25T11:36:38;3.15;;;2.70;;
33760;SDS011;20084;47.912;19.044;2023-05-25T11:39:05;3.00;;;2.70;;
33760;SDS011;20084;47.912;19.044;2023-05-25T11:41:31;2.85;;;2.65;;
33760;SDS011;20084;47.912;19.044;2023-05-25T11:44:02;3.10;;;2.63;;
33760;SDS011;20084;47.912;19.044;2023-05-25T11:46:32;4.88;;;2.85;;
33760;SDS011;20084;47.912;19.044;2023-05-25T11:48:58;3.53;;;2.70;;
33760;SDS011;20084;47.912;19.044;2023-05-25T11:51:26;3.08;;;2.60;;
33760;SDS011;20084;47.912;19.044;2023-05-25T11:53:53;3.10;;;2.42;;
33760;SDS011;20084;47.912;19.044;2023-05-25T11:56:20;2.47;;;2.28;;
33760;SDS011;20084;47.912;19.044;2023-05-25T11:58:46;2.80;;;2.60;;
33760;SDS011;20084;47.912;19.044;2023-05-25T12:01:23;3.80;;;2.47;;
33760;SDS011;20084;47.912;19.044;2023-05-25T12:03:50;4.65;;;2.58;;
33760;SDS011;20084;47.912;19.044;2023-05-25T12:06:29;2.50;;;2.30;;
33760;SDS011;20084;47.912;19.044;2023-05-25T12:08:58;2.70;;;2.50;;
33760;SDS011;20084;47.912;19.044;2023-05-25T12:11:33;3.40;;;2.33;;
33760;SDS011;20084;47.912;19.044;2023-05-25T12:13:59;2.47;;;2.28;;
33760;SDS011;20084;47.912;19.044;2023-05-25T12:16:27;2.30;;;2.20;;
33760;SDS011;20084;47.912;19.044;2023-05-25T12:18:54;3.25;;;2.40;;
33760;SDS011;20084;47.912;19.044;2023-05-25T12:21:21;3.05;;;2.80;;
33760;SDS011;20084;47.912;19.044;2023-05-25T12:23:48;2.90;;;2.70;;
33760;SDS011;20084;47.912;19.044;2023-05-25T12:26:15;3.47;;;2.58;;
33760;SDS011;20084;47.912;19.044;2023-05-25T12:31:31;2.70;;;2.50;;
33760;SDS011;20084;47.912;19.044;2023-05-25T12:34:08;2.72;;;2.45;;
33760;SDS011;20084;47.912;19.044;2023-05-25T12:36:42;3.13;;;2.83;;
33760;SDS011;20084;47.912;19.044;2023-05-25T12:39:13;3.08;;;2.78;;
33760;SDS011;20084;47.912;19.044;2023-05-25T12:41:44;3.08;;;2.88;;
33760;SDS011;20084;47.912;19.044;2023-05-25T12:44:17;2.10;;;2.00;;
33760;SDS011;20084;47.912;19.044;2023-05-25T12:46:55;2.22;;;2.03;;
33760;SDS011;20084;47.912;19.044;2023-05-25T12:49:34;3.75;;;2.58;;
33760;SDS011;20084;47.912;19.044;2023-05-25T12:52:01;3.55;;;2.50;;
33760;SDS011;20084;47.912;19.044;2023-05-25T12:57:10;2.30;;;2.10;;
33760;SDS011;20084;47.912;19.044;2023-05-25T12:59:41;2.47;;;2.28;;
33760;SDS011;20084;47.912;19.044;2023-05-25T13:02:08;2.25;;;2.08;;
33760;SDS011;20084;47.912;19.044;2023-05-25T13:04:35;3.28;;;2.38;;
33760;SDS011;20084;47.912;19.044;2023-05-25T13:07:01;2.78;;;2.40;;
33760;SDS011;20084;47.912;19.044;2023-05-25T13:09:28;2.60;;;2.40;;
33760;SDS011;20084;47.912;19.044;2023-05-25T13:11:54;3.47;;;2.35;;
33760;SDS011;20084;47.912;19.044;2023-05-25T13:14:21;2.58;;;2.38;;
33760;SDS011;20084;47.912;19.044;2023-05-25T13:16:50;5.05;;;2.35;;
33760;SDS011;20084;47.912;19.044;2023-05-25T13:19:18;2.90;;;2.25;;
33760;SDS011;20084;47.912;19.044;2023-05-25T13:21:45;2.72;;;2.40;;
33760;SDS011;20084;47.912;19.044;2023-05-25T13:24:13;2.40;;;2.20;;
33760;SDS011;20084;47.912;19.044;2023-05-25T13:26:39;2.08;;;1.85;;
33760;SDS011;20084;47.912;19.044;2023-05-25T13:29:04;5.75;;;2.00;;
33760;SDS011;20084;47.912;19.044;2023-05-25T13:31:30;4.30;;;2.03;;
33760;SDS011;20084;47.912;19.044;2023-05-25T13:33:56;3.22;;;2.33;;
33760;SDS011;20084;47.912;19.044;2023-05-25T13:36:23;2.10;;;1.95;;
33760;SDS011;20084;47.912;19.044;2023-05-25T13:38:49;2.15;;;1.95;;
33760;SDS011;20084;47.912;19.044;2023-05-25T13:41:15;1.95;;;1.83;;
33760;SDS011;20084;47.912;19.044;2023-05-25T13:43:42;2.10;;;1.95;;
33760;SDS011;20084;47.912;19.044;2023-05-25T13:46:07;3.03;;;2.03;;
33760;SDS011;20084;47.912;19.044;2023-05-25T13:48:33;2.58;;;2.13;;
33760;SDS011;20084;47.912;19.044;2023-05-25T13:50:58;3.17;;;1.90;;
33760;SDS011;20084;47.912;19.044;2023-05-25T13:53:24;2.35;;;2.15;;
33760;SDS011;20084;47.912;19.044;2023-05-25T13:55:50;2.88;;;1.98;;
33760;SDS011;20084;47.912;19.044;2023-05-25T13:58:16;2.35;;;2.15;;
33760;SDS011;20084;47.912;19.044;2023-05-25T14:00:41;1.85;;;1.65;;
33760;SDS011;20084;47.912;19.044;2023-05-25T14:03:07;3.83;;;1.92;;
33760;SDS011;20084;47.912;19.044;2023-05-25T14:05:33;2.63;;;2.05;;
33760;SDS011;20084;47.912;19.044;2023-05-25T14:07:58;1.95;;;1.80;;
33760;SDS011;20084;47.912;19.044;2023-05-25T14:10:26;2.22;;;2.08;;
33760;SDS011;20084;47.912;19.044;2023-05-25T14:12:52;2.30;;;2.10;;
33760;SDS011;20084;47.912;19.044;2023-05-25T14:15:18;3.42;;;2.13;;
33760;SDS011;20084;47.912;19.044;2023-05-25T14:17:43;6.43;;;2.50;;
33760;SDS011;20084;47.912;19.044;2023-05-25T14:20:09;2.13;;;1.92;;
33760;SDS011;20084;47.912;19.044;2023-05-25T14:22:39;2.33;;;2.13;;
33760;SDS011;20084;47.912;19.044;2023-05-25T14:25:05;3.72;;;2.15;;
33760;SDS011;20084;47.912;19.044;2023-05-25T14:27:32;3.88;;;2.20;;
33760;SDS011;20084;47.912;19.044;2023-05-25T14:29:57;4.32;;;2.15;;
33760;SDS011;20084;47.912;19.044;2023-05-25T14:32:23;6.07;;;2.40;;
33760;SDS011;20084;47.912;19.044;2023-05-25T14:34:49;5.40;;;2.13;;
33760;SDS011;20084;47.912;19.044;2023-05-25T14:37:14;2.47;;;2.20;;
33760;SDS011;20084;47.912;19.044;2023-05-25T14:39:40;2.65;;;2.20;;
33760;SDS011;20084;47.912;19.044;2023-05-25T14:42:06;2.00;;;1.90;;
33760;SDS011;20084;47.912;19.044;2023-05-25T14:44:32;2.63;;;2.22;;
33760;SDS011;20084;47.912;19.044;2023-05-25T14:46:57;2.53;;;2.33;;
33760;SDS011;20084;47.912;19.044;2023-05-25T14:49:23;2.65;;;2.40;;
33760;SDS011;20084;47.912;19.044;2023-05-25T14:51:49;3.47;;;2.20;;
33760;SDS011;20084;47.912;19.044;2023-05-25T14:54:15;2.60;;;2.40;;
33760;SDS011;20084;47.912;19.044;2023-05-25T14:56:41;3.28;;;2.42;;
33760;SDS011;20084;47.912;19.044;2023-05-25T14:59:06;2.88;;;2.67;;
33760;SDS011;20084;47.912;19.044;2023-05-25T15:01:32;3.00;;;2.28;;
33760;SDS011;20084;47.912;19.044;2023-05-25T15:03:58;2.90;;;2.10;;
33760;SDS011;20084;47.912;19.044;2023-05-25T15:06:24;2.85;;;2.65;;